sensor_id;sensor_type;location;lat;lon;timestamp;temperature;humidity
9949;DHT22;5013;51.840;8.276;2023-07-08T00:00:24;19.00;99.90
9949;DHT22;5013;51.840;8.276;2023-07-08T00:02:50;18.90;99.90
9949;DHT22;5013;51.840;8.276;2023-07-08T00:05:18;18.90;99.90
9949;DHT22;5013;51.840;8.276;2023-07-08T00:07:44;18.90;99.90
9949;DHT22;5013;51.840;8.276;2023-07-08T00:10:18;18.80;1.00
9949;DHT22;5013;51.840;8.276;2023-07-08T00:12:45;18.80;1.00
9949;DHT22;5013;51.840;8.276;2023-07-08T00:15:12;18.80;99.90
9949;DHT22;5013;51.840;8.276;2023-07-08T00:17:38;18.70;99.90
9949;DHT22;5013;51.840;8.276;2023-07-08T00:20:33;18.70;1.00
9949;DHT22;5013;51.840;8.276;2023-07-08T00:23:00;18.70;1.00
9949;DHT22;5013;51.840;8.276;2023-07-08T00:25:27;18.50;1.00
9949;DHT22;5013;51.840;8.276;2023-07-08T00:27:53;18.50;1.00
9949;DHT22;5013;51.840;8.276;2023-07-08T00:30:23;18.50;1.00
9949;DHT22;5013;51.840;8.276;2023-07-08T00:32:49;18.50;1.00
9949;DHT22;5013;51.840;8.276;2023-07-08T00:35:44;18.40;1.00
9949;DHT22;5013;51.840;8.276;2023-07-08T00:41:12;18.40;1.00
9949;DHT22;5013;51.840;8.276;2023-07-08T00:43:40;18.30;1.00
9949;DHT22;5013;51.840;8.276;2023-07-08T00:46:24;18.20;31.00
9949;DHT22;5013;51.840;8.276;2023-07-08T00:48:53;18.20;77.50
9949;DHT22;5013;51.840;8.276;2023-07-08T00:51:22;18.20;30.40
9949;DHT22;5013;51.840;8.276;2023-07-08T00:53:48;18.20;17.60
9949;DHT22;5013;51.840;8.276;2023-07-08T00:56:21;18.20;44.90
9949;DHT22;5013;51.840;8.276;2023-07-08T00:58:52;18.20;19.20
9949;DHT22;5013;51.840;8.276;2023-07-08T01:01:21;18.00;99.80
9949;DHT22;5013;51.840;8.276;2023-07-08T01:03:56;18.10;99.90
9949;DHT22;5013;51.840;8.276;2023-07-08T01:06:24;18.00;99.90
9949;DHT22;5013;51.840;8.276;2023-07-08T01:09:00;18.00;99.90
9949;DHT22;5013;51.840;8.276;2023-07-08T01:11:28;18.00;99.90
9949;DHT22;5013;51.840;8.276;2023-07-08T01:13:54;18.00;99.90
9949;DHT22;5013;51.840;8.276;2023-07-08T01:16:20;18.00;99.90
9949;DHT22;5013;51.840;8.276;2023-07-08T01:18:46;18.00;99.90
9949;DHT22;5013;51.840;8.276;2023-07-08T01:24:00;17.90;99.90
9949;DHT22;5013;51.840;8.276;2023-07-08T01:26:26;17.90;99.90
9949;DHT22;5013;51.840;8.276;2023-07-08T01:28:53;17.90;99.90
9949;DHT22;5013;51.840;8.276;2023-07-08T01:31:21;17.90;99.90
9949;DHT22;5013;51.840;8.276;2023-07-08T01:33:47;17.90;99.90
9949;DHT22;5013;51.840;8.276;2023-07-08T01:36:13;17.80;99.90
9949;DHT22;5013;51.840;8.276;2023-07-08T01:38:39;17.80;99.90
9949;DHT22;5013;51.840;8.276;2023-07-08T01:41:05;17.80;99.90
9949;DHT22;5013;51.840;8.276;2023-07-08T01:43:31;17.80;99.90
9949;DHT22;5013;51.840;8.276;2023-07-08T01:46:00;17.70;1.00
9949;DHT22;5013;51.840;8.276;2023-07-08T01:48:32;17.70;1.00
9949;DHT22;5013;51.840;8.276;2023-07-08T01:51:04;17.80;1.00
9949;DHT22;5013;51.840;8.276;2023-07-08T01:53:42;17.70;99.90
9949;DHT22;5013;51.840;8.276;2023-07-08T01:56:09;17.70;1.00
9949;DHT22;5013;51.840;8.276;2023-07-08T01:58:35;17.60;1.00
9949;DHT22;5013;51.840;8.276;2023-07-08T02:01:01;17.60;1.00
9949;DHT22;5013;51.840;8.276;2023-07-08T02:03:27;17.60;1.00
9949;DHT22;5013;51.840;8.276;2023-07-08T02:05:53;17.60;1.00
9949;DHT22;5013;51.840;8.276;2023-07-08T02:08:20;17.50;1.00
9949;DHT22;5013;51.840;8.276;2023-07-08T02:10:52;17.50;1.00
9949;DHT22;5013;51.840;8.276;2023-07-08T02:13:19;17.50;1.00
9949;DHT22;5013;51.840;8.276;2023-07-08T02:15:45;17.50;1.00
9949;DHT22;5013;51.840;8.276;2023-07-08T02:18:10;17.50;1.00
9949;DHT22;5013;51.840;8.276;2023-07-08T02:20:36;17.50;1.00
9949;DHT22;5013;51.840;8.276;2023-07-08T02:23:01;17.50;1.00
9949;DHT22;5013;51.840;8.276;2023-07-08T02:25:27;17.50;1.00
9949;DHT22;5013;51.840;8.276;2023-07-08T02:27:53;17.40;1.00
9949;DHT22;5013;51.840;8.276;2023-07-08T02:30:25;17.50;1.00
9949;DHT22;5013;51.840;8.276;2023-07-08T02:32:51;17.30;33.50
9949;DHT22;5013;51.840;8.276;2023-07-08T02:35:29;17.20;99.90
9949;DHT22;5013;51.840;8.276;2023-07-08T02:37:56;17.30;1.00
9949;DHT22;5013;51.840;8.276;2023-07-08T02:40:23;17.40;75.20
9949;DHT22;5013;51.840;8.276;2023-07-08T02:42:49;17.30;1.00
9949;DHT22;5013;51.840;8.276;2023-07-08T02:45:17;17.20;99.90
9949;DHT22;5013;51.840;8.276;2023-07-08T02:47:43;17.20;99.90
9949;DHT22;5013;51.840;8.276;2023-07-08T02:50:09;17.30;99.90
9949;DHT22;5013;51.840;8.276;2023-07-08T02:52:35;17.20;99.90
9949;DHT22;5013;51.840;8.276;2023-07-08T02:55:01;17.20;99.90
9949;DHT22;5013;51.840;8.276;2023-07-08T02:57:27;17.20;99.90
9949;DHT22;5013;51.840;8.276;2023-07-08T02:59:52;17.20;99.90
9949;DHT22;5013;51.840;8.276;2023-07-08T03:02:18;17.20;99.90
9949;DHT22;5013;51.840;8.276;2023-07-08T03:04:43;17.30;99.90
9949;DHT22;5013;51.840;8.276;2023-07-08T03:07:10;17.30;99.90
9949;DHT22;5013;51.840;8.276;2023-07-08T03:09:40;17.30;99.90
9949;DHT22;5013;51.840;8.276;2023-07-08T03:12:07;17.40;42.60
9949;DHT22;5013;51.840;8.276;2023-07-08T03:14:33;17.40;10.80
9949;DHT22;5013;51.840;8.276;2023-07-08T03:16:58;17.40;53.60
9949;DHT22;5013;51.840;8.276;2023-07-08T03:19:24;17.30;99.90
9949;DHT22;5013;51.840;8.276;2023-07-08T03:21:51;17.30;15.40
9949;DHT22;5013;51.840;8.276;2023-07-08T03:24:16;17.40;1.00
9949;DHT22;5013;51.840;8.276;2023-07-08T03:26:44;17.30;66.20
9949;DHT22;5013;51.840;8.276;2023-07-08T03:29:17;17.40;99.90
9949;DHT22;5013;51.840;8.276;2023-07-08T03:31:43;17.30;33.90
9949;DHT22;5013;51.840;8.276;2023-07-08T03:34:14;17.30;99.90
9949;DHT22;5013;51.840;8.276;2023-07-08T03:36:49;17.30;99.90
9949;DHT22;5013;51.840;8.276;2023-07-08T03:39:16;17.40;28.70
9949;DHT22;5013;51.840;8.276;2023-07-08T03:41:42;17.40;4.60
9949;DHT22;5013;51.840;8.276;2023-07-08T03:44:08;17.40;1.00
9949;DHT22;5013;51.840;8.276;2023-07-08T03:46:33;17.30;99.90
9949;DHT22;5013;51.840;8.276;2023-07-08T03:48:59;17.30;99.90
9949;DHT22;5013;51.840;8.276;2023-07-08T03:51:29;17.40;99.90
9949;DHT22;5013;51.840;8.276;2023-07-08T03:53:56;17.30;99.90
9949;DHT22;5013;51.840;8.276;2023-07-08T03:56:21;17.30;99.90
9949;DHT22;5013;51.840;8.276;2023-07-08T03:58:47;17.30;99.90
9949;DHT22;5013;51.840;8.276;2023-07-08T04:01:17;17.30;99.90
9949;DHT22;5013;51.840;8.276;2023-07-08T04:03:44;17.40;1.00
9949;DHT22;5013;51.840;8.276;2023-07-08T04:06:10;17.50;1.00
9949;DHT22;5013;51.840;8.276;2023-07-08T04:08:36;17.50;1.00
9949;DHT22;5013;51.840;8.276;2023-07-08T04:11:01;17.60;1.00
9949;DHT22;5013;51.840;8.276;2023-07-08T04:13:27;17.60;1.00
9949;DHT22;5013;51.840;8.276;2023-07-08T04:15:56;17.60;1.00
9949;DHT22;5013;51.840;8.276;2023-07-08T04:18:24;17.60;1.00
9949;DHT22;5013;51.840;8.276;2023-07-08T04:20:49;17.70;1.00
9949;DHT22;5013;51.840;8.276;2023-07-08T04:23:21;17.70;1.00
9949;DHT22;5013;51.840;8.276;2023-07-08T04:25:48;17.70;1.00
9949;DHT22;5013;51.840;8.276;2023-07-08T04:28:14;17.70;99.90
9949;DHT22;5013;51.840;8.276;2023-07-08T04:30:40;17.80;1.00
9949;DHT22;5013;51.840;8.276;2023-07-08T04:33:13;17.90;1.00
9949;DHT22;5013;51.840;8.276;2023-07-08T04:35:41;17.90;1.00
9949;DHT22;5013;51.840;8.276;2023-07-08T04:38:17;18.00;1.00
9949;DHT22;5013;51.840;8.276;2023-07-08T04:40:43;18.20;1.00
9949;DHT22;5013;51.840;8.276;2023-07-08T04:43:09;18.30;99.90
9949;DHT22;5013;51.840;8.276;2023-07-08T04:45:42;18.40;99.90
9949;DHT22;5013;51.840;8.276;2023-07-08T04:48:16;18.50;1.00
9949;DHT22;5013;51.840;8.276;2023-07-08T04:50:45;18.70;99.90
9949;DHT22;5013;51.840;8.276;2023-07-08T04:53:12;19.10;99.90
9949;DHT22;5013;51.840;8.276;2023-07-08T04:55:43;20.70;1.00
9949;DHT22;5013;51.840;8.276;2023-07-08T04:58:09;22.30;99.90
9949;DHT22;5013;51.840;8.276;2023-07-08T05:00:35;23.60;1.00
9949;DHT22;5013;51.840;8.276;2023-07-08T05:03:01;24.80;1.00
9949;DHT22;5013;51.840;8.276;2023-07-08T05:05:27;25.30;1.00
9949;DHT22;5013;51.840;8.276;2023-07-08T05:07:52;26.10;1.00
9949;DHT22;5013;51.840;8.276;2023-07-08T05:10:19;26.50;1.00
9949;DHT22;5013;51.840;8.276;2023-07-08T05:12:45;26.90;1.00
9949;DHT22;5013;51.840;8.276;2023-07-08T05:15:11;26.90;1.00
9949;DHT22;5013;51.840;8.276;2023-07-08T05:17:38;26.60;1.00
9949;DHT22;5013;51.840;8.276;2023-07-08T05:20:05;26.60;1.00
9949;DHT22;5013;51.840;8.276;2023-07-08T05:22:33;26.70;1.00
9949;DHT22;5013;51.840;8.276;2023-07-08T05:24:58;26.50;1.00
9949;DHT22;5013;51.840;8.276;2023-07-08T05:27:24;26.40;1.00
9949;DHT22;5013;51.840;8.276;2023-07-08T05:29:51;26.20;1.00
9949;DHT22;5013;51.840;8.276;2023-07-08T05:32:17;26.20;1.00
9949;DHT22;5013;51.840;8.276;2023-07-08T05:34:43;26.20;1.00
9949;DHT22;5013;51.840;8.276;2023-07-08T05:37:09;26.10;1.00
9949;DHT22;5013;51.840;8.276;2023-07-08T05:39:35;26.30;1.00
9949;DHT22;5013;51.840;8.276;2023-07-08T05:42:01;25.90;1.00
9949;DHT22;5013;51.840;8.276;2023-07-08T05:44:26;25.80;1.00
9949;DHT22;5013;51.840;8.276;2023-07-08T05:46:52;25.90;1.00
9949;DHT22;5013;51.840;8.276;2023-07-08T05:49:17;25.90;1.00
9949;DHT22;5013;51.840;8.276;2023-07-08T05:51:44;25.90;1.00
9949;DHT22;5013;51.840;8.276;2023-07-08T05:54:10;25.90;1.00
9949;DHT22;5013;51.840;8.276;2023-07-08T05:56:35;25.90;1.00
9949;DHT22;5013;51.840;8.276;2023-07-08T05:59:02;26.10;1.00
9949;DHT22;5013;51.840;8.276;2023-07-08T06:01:27;26.30;1.00
9949;DHT22;5013;51.840;8.276;2023-07-08T06:03:53;26.10;1.00
9949;DHT22;5013;51.840;8.276;2023-07-08T06:06:18;26.20;1.00
9949;DHT22;5013;51.840;8.276;2023-07-08T06:08:44;26.40;1.00
9949;DHT22;5013;51.840;8.276;2023-07-08T06:11:09;26.60;1.00
9949;DHT22;5013;51.840;8.276;2023-07-08T06:13:35;26.70;1.00
9949;DHT22;5013;51.840;8.276;2023-07-08T06:16:01;26.80;1.00
9949;DHT22;5013;51.840;8.276;2023-07-08T06:18:26;27.00;1.00
9949;DHT22;5013;51.840;8.276;2023-07-08T06:20:57;27.00;1.00
9949;DHT22;5013;51.840;8.276;2023-07-08T06:23:23;27.00;1.00
9949;DHT22;5013;51.840;8.276;2023-07-08T06:25:49;27.20;1.00
9949;DHT22;5013;51.840;8.276;2023-07-08T06:28:14;27.30;1.00
9949;DHT22;5013;51.840;8.276;2023-07-08T06:30:40;27.40;1.00
9949;DHT22;5013;51.840;8.276;2023-07-08T06:33:05;27.10;1.00
9949;DHT22;5013;51.840;8.276;2023-07-08T06:35:31;27.30;1.00
9949;DHT22;5013;51.840;8.276;2023-07-08T06:37:57;27.40;1.00
9949;DHT22;5013;51.840;8.276;2023-07-08T06:40:22;27.40;1.00
9949;DHT22;5013;51.840;8.276;2023-07-08T06:42:48;27.30;1.00
9949;DHT22;5013;51.840;8.276;2023-07-08T06:45:14;27.60;1.00
9949;DHT22;5013;51.840;8.276;2023-07-08T06:47:39;27.50;1.00
9949;DHT22;5013;51.840;8.276;2023-07-08T06:50:05;27.50;1.00
9949;DHT22;5013;51.840;8.276;2023-07-08T06:52:32;27.40;1.00
9949;DHT22;5013;51.840;8.276;2023-07-08T06:55:05;27.80;1.00
9949;DHT22;5013;51.840;8.276;2023-07-08T06:57:32;28.10;1.00
9949;DHT22;5013;51.840;8.276;2023-07-08T06:59:57;27.80;1.00
9949;DHT22;5013;51.840;8.276;2023-07-08T07:02:23;27.70;1.00
9949;DHT22;5013;51.840;8.276;2023-07-08T07:04:49;27.90;1.00
9949;DHT22;5013;51.840;8.276;2023-07-08T07:07:15;28.00;1.00
9949;DHT22;5013;51.840;8.276;2023-07-08T07:09:41;27.70;1.00
9949;DHT22;5013;51.840;8.276;2023-07-08T07:12:07;27.90;1.00
9949;DHT22;5013;51.840;8.276;2023-07-08T07:14:32;28.30;1.00
9949;DHT22;5013;51.840;8.276;2023-07-08T07:16:58;28.20;1.00
9949;DHT22;5013;51.840;8.276;2023-07-08T07:19:24;28.20;1.00
9949;DHT22;5013;51.840;8.276;2023-07-08T07:21:49;28.50;1.00
9949;DHT22;5013;51.840;8.276;2023-07-08T07:24:15;28.80;1.00
9949;DHT22;5013;51.840;8.276;2023-07-08T07:26:41;28.70;1.00
9949;DHT22;5013;51.840;8.276;2023-07-08T07:29:06;28.40;1.00
9949;DHT22;5013;51.840;8.276;2023-07-08T07:31:32;28.60;1.00
9949;DHT22;5013;51.840;8.276;2023-07-08T07:33:59;28.80;1.00
9949;DHT22;5013;51.840;8.276;2023-07-08T07:36:25;29.00;1.00
9949;DHT22;5013;51.840;8.276;2023-07-08T07:38:51;28.50;1.00
9949;DHT22;5013;51.840;8.276;2023-07-08T07:41:17;28.60;1.00
9949;DHT22;5013;51.840;8.276;2023-07-08T07:43:42;28.60;1.00
9949;DHT22;5013;51.840;8.276;2023-07-08T07:46:08;28.60;1.00
9949;DHT22;5013;51.840;8.276;2023-07-08T07:48:36;28.80;1.00
9949;DHT22;5013;51.840;8.276;2023-07-08T07:51:02;29.10;1.00
9949;DHT22;5013;51.840;8.276;2023-07-08T07:53:28;29.40;1.00
9949;DHT22;5013;51.840;8.276;2023-07-08T07:56:00;29.30;1.00
9949;DHT22;5013;51.840;8.276;2023-07-08T07:58:26;29.30;1.00
9949;DHT22;5013;51.840;8.276;2023-07-08T08:00:52;29.30;1.00
9949;DHT22;5013;51.840;8.276;2023-07-08T08:03:19;29.30;1.00
9949;DHT22;5013;51.840;8.276;2023-07-08T08:05:45;29.30;1.00
9949;DHT22;5013;51.840;8.276;2023-07-08T08:08:10;29.50;1.00
9949;DHT22;5013;51.840;8.276;2023-07-08T08:10:36;29.50;1.00
9949;DHT22;5013;51.840;8.276;2023-07-08T08:13:02;29.70;1.00
9949;DHT22;5013;51.840;8.276;2023-07-08T08:15:28;29.70;1.00
9949;DHT22;5013;51.840;8.276;2023-07-08T08:17:54;30.00;1.00
9949;DHT22;5013;51.840;8.276;2023-07-08T08:20:22;30.20;1.00
9949;DHT22;5013;51.840;8.276;2023-07-08T08:22:49;30.30;1.00
9949;DHT22;5013;51.840;8.276;2023-07-08T08:25:15;30.30;1.00
9949;DHT22;5013;51.840;8.276;2023-07-08T08:27:41;30.30;1.00
9949;DHT22;5013;51.840;8.276;2023-07-08T08:30:07;30.40;1.00
9949;DHT22;5013;51.840;8.276;2023-07-08T08:32:33;30.70;1.00
9949;DHT22;5013;51.840;8.276;2023-07-08T08:34:59;30.70;1.00
9949;DHT22;5013;51.840;8.276;2023-07-08T08:37:24;30.60;1.00
9949;DHT22;5013;51.840;8.276;2023-07-08T08:39:50;30.60;1.00
9949;DHT22;5013;51.840;8.276;2023-07-08T08:42:40;30.90;1.00
9949;DHT22;5013;51.840;8.276;2023-07-08T08:45:11;31.10;1.00
9949;DHT22;5013;51.840;8.276;2023-07-08T08:47:47;31.20;99.90
9949;DHT22;5013;51.840;8.276;2023-07-08T08:53:01;31.70;99.90
9949;DHT22;5013;51.840;8.276;2023-07-08T08:55:28;31.70;99.90
9949;DHT22;5013;51.840;8.276;2023-07-08T09:00:55;31.60;99.90
9949;DHT22;5013;51.840;8.276;2023-07-08T09:05:59;31.40;99.90
9949;DHT22;5013;51.840;8.276;2023-07-08T09:08:36;31.40;99.90
9949;DHT22;5013;51.840;8.276;2023-07-08T09:11:17;31.50;99.90
9949;DHT22;5013;51.840;8.276;2023-07-08T09:13:44;31.50;99.90
9949;DHT22;5013;51.840;8.276;2023-07-08T09:19:24;31.80;99.90
9949;DHT22;5013;51.840;8.276;2023-07-08T09:22:00;31.90;99.90
9949;DHT22;5013;51.840;8.276;2023-07-08T09:27:04;31.70;99.90
9949;DHT22;5013;51.840;8.276;2023-07-08T09:29:31;31.70;99.90
9949;DHT22;5013;51.840;8.276;2023-07-08T09:31:58;31.90;99.90
9949;DHT22;5013;51.840;8.276;2023-07-08T09:34:37;31.80;99.90
9949;DHT22;5013;51.840;8.276;2023-07-08T09:37:20;32.10;99.90
9949;DHT22;5013;51.840;8.276;2023-07-08T09:39:46;32.10;99.90
9949;DHT22;5013;51.840;8.276;2023-07-08T09:42:13;32.00;99.90
9949;DHT22;5013;51.840;8.276;2023-07-08T09:44:40;32.30;99.90
9949;DHT22;5013;51.840;8.276;2023-07-08T09:47:25;32.10;99.90
9949;DHT22;5013;51.840;8.276;2023-07-08T09:49:52;32.30;99.90
9949;DHT22;5013;51.840;8.276;2023-07-08T09:52:18;32.50;99.90
9949;DHT22;5013;51.840;8.276;2023-07-08T09:54:45;32.60;99.90
9949;DHT22;5013;51.840;8.276;2023-07-08T09:59:53;32.70;99.90
9949;DHT22;5013;51.840;8.276;2023-07-08T10:05:00;32.70;99.90
9949;DHT22;5013;51.840;8.276;2023-07-08T10:07:29;32.80;99.90
9949;DHT22;5013;51.840;8.276;2023-07-08T10:09:58;32.40;99.90
9949;DHT22;5013;51.840;8.276;2023-07-08T10:12:24;32.50;99.90
9949;DHT22;5013;51.840;8.276;2023-07-08T10:14:54;32.70;99.90
9949;DHT22;5013;51.840;8.276;2023-07-08T10:17:21;32.80;99.90
9949;DHT22;5013;51.840;8.276;2023-07-08T10:19:48;32.90;99.90
9949;DHT22;5013;51.840;8.276;2023-07-08T10:22:25;32.50;99.90
9949;DHT22;5013;51.840;8.276;2023-07-08T10:33:17;33.80;99.90
9949;DHT22;5013;51.840;8.276;2023-07-08T10:36:19;33.50;99.90
9949;DHT22;5013;51.840;8.276;2023-07-08T10:44:54;33.60;99.90
9949;DHT22;5013;51.840;8.276;2023-07-08T10:47:23;33.70;99.90
9949;DHT22;5013;51.840;8.276;2023-07-08T10:50:11;33.70;99.90
9949;DHT22;5013;51.840;8.276;2023-07-08T10:53:17;33.50;99.90
9949;DHT22;5013;51.840;8.276;2023-07-08T10:58:23;33.70;99.90
9949;DHT22;5013;51.840;8.276;2023-07-08T11:04:26;34.20;99.90
9949;DHT22;5013;51.840;8.276;2023-07-08T11:07:04;34.40;99.90
9949;DHT22;5013;51.840;8.276;2023-07-08T11:09:40;34.60;99.90
9949;DHT22;5013;51.840;8.276;2023-07-08T11:12:36;34.10;99.90
9949;DHT22;5013;51.840;8.276;2023-07-08T11:15:07;34.50;99.90
9949;DHT22;5013;51.840;8.276;2023-07-08T11:17:43;34.50;99.90
9949;DHT22;5013;51.840;8.276;2023-07-08T11:20:15;34.60;99.90
9949;DHT22;5013;51.840;8.276;2023-07-08T11:22:52;34.50;99.90
9949;DHT22;5013;51.840;8.276;2023-07-08T11:25:20;34.60;99.90
9949;DHT22;5013;51.840;8.276;2023-07-08T11:27:50;34.40;99.90
9949;DHT22;5013;51.840;8.276;2023-07-08T11:30:21;34.30;99.90
9949;DHT22;5013;51.840;8.276;2023-07-08T11:32:49;34.70;99.90
9949;DHT22;5013;51.840;8.276;2023-07-08T11:38:03;34.30;99.90
9949;DHT22;5013;51.840;8.276;2023-07-08T11:40:30;34.50;99.90
9949;DHT22;5013;51.840;8.276;2023-07-08T11:43:03;35.00;99.90
9949;DHT22;5013;51.840;8.276;2023-07-08T11:45:38;35.20;99.90
9949;DHT22;5013;51.840;8.276;2023-07-08T11:50:50;35.00;99.90
9949;DHT22;5013;51.840;8.276;2023-07-08T11:56:03;34.80;99.90
9949;DHT22;5013;51.840;8.276;2023-07-08T11:58:50;34.70;99.90
9949;DHT22;5013;51.840;8.276;2023-07-08T12:03:50;35.30;99.90
9949;DHT22;5013;51.840;8.276;2023-07-08T12:08:58;35.40;99.90
9949;DHT22;5013;51.840;8.276;2023-07-08T12:11:27;35.20;99.90
9949;DHT22;5013;51.840;8.276;2023-07-08T12:13:55;35.10;99.90
9949;DHT22;5013;51.840;8.276;2023-07-08T12:16:23;35.00;99.90
9949;DHT22;5013;51.840;8.276;2023-07-08T12:18:49;35.00;99.90
9949;DHT22;5013;51.840;8.276;2023-07-08T12:21:15;34.90;99.90
9949;DHT22;5013;51.840;8.276;2023-07-08T12:23:47;35.20;99.90
9949;DHT22;5013;51.840;8.276;2023-07-08T12:26:14;35.20;99.90
9949;DHT22;5013;51.840;8.276;2023-07-08T12:28:40;35.40;99.90
9949;DHT22;5013;51.840;8.276;2023-07-08T12:31:21;35.30;99.90
9949;DHT22;5013;51.840;8.276;2023-07-08T12:33:47;35.20;99.90
9949;DHT22;5013;51.840;8.276;2023-07-08T12:36:21;35.30;99.90
9949;DHT22;5013;51.840;8.276;2023-07-08T12:38:49;35.50;99.90
9949;DHT22;5013;51.840;8.276;2023-07-08T12:41:16;35.50;99.90
9949;DHT22;5013;51.840;8.276;2023-07-08T12:43:43;35.00;99.90
9949;DHT22;5013;51.840;8.276;2023-07-08T12:46:10;35.20;99.90
9949;DHT22;5013;51.840;8.276;2023-07-08T12:48:39;35.30;99.90
9949;DHT22;5013;51.840;8.276;2023-07-08T12:51:10;35.40;99.90
9949;DHT22;5013;51.840;8.276;2023-07-08T12:53:36;35.40;99.90
9949;DHT22;5013;51.840;8.276;2023-07-08T12:56:03;35.40;99.90
9949;DHT22;5013;51.840;8.276;2023-07-08T12:58:32;35.40;99.90
9949;DHT22;5013;51.840;8.276;2023-07-08T13:01:00;35.00;99.90
9949;DHT22;5013;51.840;8.276;2023-07-08T13:03:29;35.10;99.90
9949;DHT22;5013;51.840;8.276;2023-07-08T13:05:57;35.20;99.90
9949;DHT22;5013;51.840;8.276;2023-07-08T13:08:27;35.30;99.90
9949;DHT22;5013;51.840;8.276;2023-07-08T13:10:59;35.30;99.90
9949;DHT22;5013;51.840;8.276;2023-07-08T13:13:28;35.50;99.90
9949;DHT22;5013;51.840;8.276;2023-07-08T13:15:55;35.40;99.90
9949;DHT22;5013;51.840;8.276;2023-07-08T13:18:28;35.30;99.90
9949;DHT22;5013;51.840;8.276;2023-07-08T13:20:56;35.30;99.90
9949;DHT22;5013;51.840;8.276;2023-07-08T13:23:22;35.30;99.90
9949;DHT22;5013;51.840;8.276;2023-07-08T13:25:52;35.10;99.90
9949;DHT22;5013;51.840;8.276;2023-07-08T13:28:29;35.30;99.90
9949;DHT22;5013;51.840;8.276;2023-07-08T13:31:14;35.20;99.90
9949;DHT22;5013;51.840;8.276;2023-07-08T13:33:51;35.20;99.90
9949;DHT22;5013;51.840;8.276;2023-07-08T13:36:21;35.00;99.90
9949;DHT22;5013;51.840;8.276;2023-07-08T13:38:47;35.10;99.90
9949;DHT22;5013;51.840;8.276;2023-07-08T13:41:19;35.10;99.90
9949;DHT22;5013;51.840;8.276;2023-07-08T13:43:46;35.30;99.90
9949;DHT22;5013;51.840;8.276;2023-07-08T13:46:43;34.90;99.90
9949;DHT22;5013;51.840;8.276;2023-07-08T13:49:16;35.20;99.90
9949;DHT22;5013;51.840;8.276;2023-07-08T13:51:44;35.30;99.90
9949;DHT22;5013;51.840;8.276;2023-07-08T13:54:23;35.30;99.90
9949;DHT22;5013;51.840;8.276;2023-07-08T13:56:50;35.40;99.90
9949;DHT22;5013;51.840;8.276;2023-07-08T13:59:22;35.40;99.90
9949;DHT22;5013;51.840;8.276;2023-07-08T14:01:51;35.60;99.90
9949;DHT22;5013;51.840;8.276;2023-07-08T14:04:20;35.50;99.90
9949;DHT22;5013;51.840;8.276;2023-07-08T14:06:47;35.50;99.90
9949;DHT22;5013;51.840;8.276;2023-07-08T14:09:17;35.30;99.90
9949;DHT22;5013;51.840;8.276;2023-07-08T14:11:44;35.20;99.90
9949;DHT22;5013;51.840;8.276;2023-07-08T14:14:11;34.80;99.90
9949;DHT22;5013;51.840;8.276;2023-07-08T14:16:39;34.90;99.90
9949;DHT22;5013;51.840;8.276;2023-07-08T14:19:07;35.10;99.90
9949;DHT22;5013;51.840;8.276;2023-07-08T14:21:36;35.10;99.90
9949;DHT22;5013;51.840;8.276;2023-07-08T14:24:07;35.20;99.90
9949;DHT22;5013;51.840;8.276;2023-07-08T14:26:33;34.70;99.90
9949;DHT22;5013;51.840;8.276;2023-07-08T14:28:59;34.50;99.90
9949;DHT22;5013;51.840;8.276;2023-07-08T14:31:25;34.60;99.90
9949;DHT22;5013;51.840;8.276;2023-07-08T14:34:03;34.70;99.90
9949;DHT22;5013;51.840;8.276;2023-07-08T14:36:31;34.70;99.90
9949;DHT22;5013;51.840;8.276;2023-07-08T14:38:56;34.70;99.90
9949;DHT22;5013;51.840;8.276;2023-07-08T14:41:23;34.70;99.90
9949;DHT22;5013;51.840;8.276;2023-07-08T14:43:49;34.70;99.90
9949;DHT22;5013;51.840;8.276;2023-07-08T14:46:14;34.70;99.90
9949;DHT22;5013;51.840;8.276;2023-07-08T14:48:42;34.70;99.90
9949;DHT22;5013;51.840;8.276;2023-07-08T14:51:07;34.80;99.90
9949;DHT22;5013;51.840;8.276;2023-07-08T14:53:33;35.00;99.90
9949;DHT22;5013;51.840;8.276;2023-07-08T14:56:08;34.70;99.90
9949;DHT22;5013;51.840;8.276;2023-07-08T14:58:39;34.90;99.90
9949;DHT22;5013;51.840;8.276;2023-07-08T15:01:15;35.10;99.90
9949;DHT22;5013;51.840;8.276;2023-07-08T15:03:42;35.20;99.90
9949;DHT22;5013;51.840;8.276;2023-07-08T15:06:10;35.00;99.90
9949;DHT22;5013;51.840;8.276;2023-07-08T15:08:36;35.00;99.90
9949;DHT22;5013;51.840;8.276;2023-07-08T15:11:02;34.90;99.90
9949;DHT22;5013;51.840;8.276;2023-07-08T15:13:31;34.80;99.90
9949;DHT22;5013;51.840;8.276;2023-07-08T15:15:57;34.80;99.90
9949;DHT22;5013;51.840;8.276;2023-07-08T15:18:23;34.90;99.90
9949;DHT22;5013;51.840;8.276;2023-07-08T15:20:48;35.00;99.90
9949;DHT22;5013;51.840;8.276;2023-07-08T15:23:14;34.90;99.90
9949;DHT22;5013;51.840;8.276;2023-07-08T15:25:44;34.90;99.90
9949;DHT22;5013;51.840;8.276;2023-07-08T15:28:19;34.90;99.90
9949;DHT22;5013;51.840;8.276;2023-07-08T15:30:45;34.90;99.90
9949;DHT22;5013;51.840;8.276;2023-07-08T15:33:14;35.00;99.90
9949;DHT22;5013;51.840;8.276;2023-07-08T15:35:40;35.00;99.90
9949;DHT22;5013;51.840;8.276;2023-07-08T15:38:06;35.00;99.90
9949;DHT22;5013;51.840;8.276;2023-07-08T15:40:33;35.00;99.90
9949;DHT22;5013;51.840;8.276;2023-07-08T15:43:01;34.70;99.90
9949;DHT22;5013;51.840;8.276;2023-07-08T15:45:37;34.60;99.90
9949;DHT22;5013;51.840;8.276;2023-07-08T15:48:03;34.50;99.90
9949;DHT22;5013;51.840;8.276;2023-07-08T15:50:29;34.60;99.90
9949;DHT22;5013;51.840;8.276;2023-07-08T15:52:55;34.60;99.90
9949;DHT22;5013;51.840;8.276;2023-07-08T15:55:26;34.60;99.90
9949;DHT22;5013;51.840;8.276;2023-07-08T15:57:56;34.70;99.90
9949;DHT22;5013;51.840;8.276;2023-07-08T16:00:28;34.60;99.90
9949;DHT22;5013;51.840;8.276;2023-07-08T16:02:56;34.50;99.90
9949;DHT22;5013;51.840;8.276;2023-07-08T16:05:22;34.40;99.90
9949;DHT22;5013;51.840;8.276;2023-07-08T16:07:51;34.40;99.90
9949;DHT22;5013;51.840;8.276;2023-07-08T16:10:17;34.30;99.90
9949;DHT22;5013;51.840;8.276;2023-07-08T16:12:45;34.20;99.90
9949;DHT22;5013;51.840;8.276;2023-07-08T16:15:23;34.20;99.90
9949;DHT22;5013;51.840;8.276;2023-07-08T16:17:51;34.00;99.90
9949;DHT22;5013;51.840;8.276;2023-07-08T16:20:22;33.80;99.90
9949;DHT22;5013;51.840;8.276;2023-07-08T16:22:48;33.80;99.90
9949;DHT22;5013;51.840;8.276;2023-07-08T16:25:15;33.90;99.90
9949;DHT22;5013;51.840;8.276;2023-07-08T16:27:43;33.90;99.90
9949;DHT22;5013;51.840;8.276;2023-07-08T16:30:17;34.00;99.90
9949;DHT22;5013;51.840;8.276;2023-07-08T16:32:44;34.10;99.90
9949;DHT22;5013;51.840;8.276;2023-07-08T16:35:16;33.90;99.90
9949;DHT22;5013;51.840;8.276;2023-07-08T16:37:43;33.80;99.90
9949;DHT22;5013;51.840;8.276;2023-07-08T16:40:20;33.80;99.90
9949;DHT22;5013;51.840;8.276;2023-07-08T16:42:48;33.70;99.90
9949;DHT22;5013;51.840;8.276;2023-07-08T16:45:17;33.60;99.90
9949;DHT22;5013;51.840;8.276;2023-07-08T16:47:44;33.60;99.90
9949;DHT22;5013;51.840;8.276;2023-07-08T16:50:11;33.70;99.90
9949;DHT22;5013;51.840;8.276;2023-07-08T16:52:36;33.70;99.90
9949;DHT22;5013;51.840;8.276;2023-07-08T16:55:12;33.70;99.90
9949;DHT22;5013;51.840;8.276;2023-07-08T16:57:38;33.70;99.90
9949;DHT22;5013;51.840;8.276;2023-07-08T17:00:05;33.60;99.90
9949;DHT22;5013;51.840;8.276;2023-07-08T17:02:32;33.50;99.90
9949;DHT22;5013;51.840;8.276;2023-07-08T17:04:58;33.40;99.90
9949;DHT22;5013;51.840;8.276;2023-07-08T17:07:24;33.30;99.90
9949;DHT22;5013;51.840;8.276;2023-07-08T17:09:50;33.40;99.90
9949;DHT22;5013;51.840;8.276;2023-07-08T17:12:15;33.30;99.90
9949;DHT22;5013;51.840;8.276;2023-07-08T17:14:41;33.30;99.90